Time;durP1;ratioP1;P1;durP2;ratioP2;P2;SDS_P1;SDS_P2;PMS_P1;PMS_P2;Temp;Humidity;BMP_temperature;BMP_pressure;BME280_temperature;BME280_humidity;BME280_pressure;Samples;Min_cycle;Max_cycle;Signal;HPM_P1;HPM_P2
2022/07/27 00:01:05;;;;;;;;;2.33;2.00;;;;;20.19;100.00;101457.53;4950291;28;45660;-78
2022/07/27 00:03:30;;;;;;;;;1.00;1.00;;;;;20.21;100.00;101463.72;4954391;28;45845;-78
2022/07/27 00:05:56;;;;;;;;;0.75;0.75;;;;;20.25;100.00;101464.03;4954018;28;46003;-78
2022/07/27 00:08:22;;;;;;;;;1.00;1.00;;;;;20.20;100.00;101448.09;4951405;28;46655;-76
2022/07/27 00:10:49;;;;;;;;;3.00;2.33;;;;;20.12;100.00;101431.81;4962609;28;45376;-78
2022/07/27 00:13:14;;;;;;;;;1.75;1.75;;;;;20.23;100.00;101444.78;4950402;28;45842;-77
2022/07/27 00:15:40;;;;;;;;;3.00;3.00;;;;;20.22;100.00;101451.44;4953276;28;46515;-77
2022/07/27 00:18:06;;;;;;;;;1.50;1.50;;;;;20.19;100.00;101446.38;4930732;28;48209;-77
2022/07/27 00:20:32;;;;;;;;;3.00;1.67;;;;;20.19;100.00;101449.16;4951887;28;45839;-75
2022/07/27 00:22:58;;;;;;;;;0.75;0.75;;;;;20.18;100.00;101455.88;4952853;28;45418;-76
2022/07/27 00:25:28;;;;;;;;;2.00;2.00;;;;;20.12;100.00;101451.31;4949984;28;45361;-75
2022/07/27 00:27:57;;;;;;;;;2.25;2.25;;;;;20.16;100.00;101455.25;4952510;28;45854;-78
2022/07/27 00:30:23;;;;;;;;;1.00;1.00;;;;;20.09;100.00;101443.47;4943011;28;45573;-77
2022/07/27 00:32:50;;;;;;;;;2.00;2.00;;;;;20.12;100.00;101448.53;4949336;28;45389;-78
2022/07/27 00:35:15;;;;;;;;;2.00;2.00;;;;;20.12;100.00;101456.88;4924392;28;46437;-76
2022/07/27 00:37:41;;;;;;;;;2.00;0.75;;;;;19.97;100.00;101420.44;4960874;28;45606;-78
2022/07/27 00:40:08;;;;;;;;;3.00;1.67;;;;;20.10;100.00;101445.16;4961587;28;45384;-78
2022/07/27 00:42:34;;;;;;;;;2.25;2.25;;;;;20.09;100.00;101449.06;4988870;28;45888;-78
2022/07/27 00:45:00;;;;;;;;;6.00;3.00;;;;;20.03;100.00;101450.03;4972576;28;45484;-78
2022/07/27 00:47:26;;;;;;;;;2.75;2.75;;;;;19.97;100.00;101435.22;4969919;28;45345;-79
2022/07/27 00:49:52;;;;;;;;;3.00;3.00;;;;;20.05;100.00;101448.69;4983819;28;44693;-77
2022/07/27 00:52:18;;;;;;;;;2.00;2.00;;;;;20.01;100.00;101446.69;4970054;28;45285;-78
2022/07/27 00:54:44;;;;;;;;;3.00;1.25;;;;;19.89;100.00;101435.66;4972362;28;45352;-78
2022/07/27 00:57:12;;;;;;;;;6.67;3.33;;;;;19.93;100.00;101453.53;4965438;28;47076;-78
2022/07/27 00:59:38;;;;;;;;;2.67;2.67;;;;;19.87;100.00;101438.69;4985836;28;45528;-78
2022/07/27 01:02:05;;;;;;;;;3.50;3.50;;;;;19.96;100.00;101457.75;4988883;28;45364;-78
2022/07/27 01:04:32;;;;;;;;;6.00;5.00;;;;;19.71;100.00;101412.50;4971562;28;45566;-77
2022/07/27 01:06:58;;;;;;;;;4.00;3.00;;;;;19.94;100.00;101452.44;4966492;28;46242;-77
2022/07/27 01:12:13;;;;;;;;;9.67;6.67;;;;;19.91;100.00;101448.22;4963336;28;45045;-74
2022/07/27 01:14:38;;;;;;;;;10.00;6.67;;;;;19.87;100.00;101441.47;4957026;28;45905;-75
2022/07/27 01:17:05;;;;;;;;;5.33;5.33;;;;;19.84;100.00;101430.84;4966947;28;45401;-75
2022/07/27 01:19:31;;;;;;;;;3.00;3.00;;;;;19.90;100.00;101435.38;4966599;28;45404;-76
2022/07/27 01:21:56;;;;;;;;;6.67;5.00;;;;;19.91;100.00;101442.66;4967801;28;45446;-75
2022/07/27 01:24:21;;;;;;;;;5.33;4.00;;;;;19.90;100.00;101440.13;4968406;28;45730;-75
2022/07/27 01:26:47;;;;;;;;;16.67;11.33;;;;;19.80;100.00;101429.66;4969080;28;46572;-76
2022/07/27 01:29:13;;;;;;;;;6.00;5.00;;;;;19.85;100.00;101437.25;4942113;28;45365;-74
2022/07/27 01:31:39;;;;;;;;;6.67;6.67;;;;;19.83;100.00;101436.66;4967801;28;45369;-78
2022/07/27 01:34:05;;;;;;;;;4.67;3.67;;;;;19.73;100.00;101415.91;4959899;28;45683;-75
2022/07/27 01:36:30;;;;;;;;;2.00;2.00;;;;;19.72;100.00;101428.13;4962427;28;45565;-74
2022/07/27 01:38:56;;;;;;;;;5.33;3.33;;;;;19.61;100.00;101419.84;4967063;28;45370;-78
2022/07/27 01:41:21;;;;;;;;;3.33;3.33;;;;;19.38;100.00;101393.88;4971839;28;44822;-77
2022/07/27 01:43:57;;;;;;;;;3.33;3.33;;;;;19.44;100.00;101431.81;5059258;27;45597;-66
2022/07/27 01:46:22;;;;;;;;;3.33;3.00;;;;;19.39;100.00;101434.53;5051062;28;45298;-66
2022/07/27 01:48:48;;;;;;;;;3.00;3.00;;;;;19.31;100.00;101430.22;5043842;28;45751;-67
2022/07/27 01:51:13;;;;;;;;;2.33;1.67;;;;;19.22;100.00;101440.03;5048848;28;46211;-65
2022/07/27 01:53:39;;;;;;;;;4.33;3.00;;;;;19.10;100.00;101434.56;5048925;28;46847;-66
2022/07/27 01:56:09;;;;;;;;;2.67;2.00;;;;;19.00;100.00;101437.16;5050960;28;45420;-65
2022/07/27 01:58:37;;;;;;;;;3.00;3.00;;;;;18.93;100.00;101433.66;5049792;28;45728;-66
2022/07/27 02:01:03;;;;;;;;;2.67;2.67;;;;;18.84;100.00;101431.25;5049296;28;45361;-65
2022/07/27 02:03:29;;;;;;;;;3.00;3.00;;;;;18.81;100.00;101442.84;5049281;28;46577;-65
2022/07/27 02:05:54;;;;;;;;;6.00;5.33;;;;;18.80;100.00;101437.53;5053749;28;45287;-65
2022/07/27 02:08:19;;;;;;;;;2.67;2.67;;;;;18.76;100.00;101425.22;5050594;28;45423;-66
2022/07/27 02:13:29;;;;;;;;;2.00;2.00;;;;;18.67;100.00;101433.13;5057790;28;45779;-65
2022/07/27 02:15:55;;;;;;;;;2.67;2.67;;;;;18.65;100.00;101432.50;5050735;28;45397;-66
2022/07/27 02:18:22;;;;;;;;;1.67;1.67;;;;;18.60;100.00;101437.97;5050454;28;45685;-66
2022/07/27 02:20:47;;;;;;;;;2.67;2.33;;;;;18.59;100.00;101448.22;5049744;28;45471;-69
2022/07/27 02:23:12;;;;;;;;;5.33;2.00;;;;;18.59;100.00;101439.88;5045745;28;46315;-65
2022/07/27 02:25:39;;;;;;;;;3.67;3.67;;;;;18.59;100.00;101442.66;5038913;28;45476;-63
2022/07/27 02:28:05;;;;;;;;;2.00;2.00;;;;;18.60;100.00;101451.88;5049351;28;45631;-63
2022/07/27 02:30:30;;;;;;;;;4.00;2.67;;;;;18.60;100.00;101447.16;5048869;28;45830;-63
2022/07/27 02:32:56;;;;;;;;;6.00;3.00;;;;;18.61;100.00;101440.50;5059377;28;46374;-65
2022/07/27 02:35:21;;;;;;;;;2.00;2.00;;;;;18.61;100.00;101439.69;5051513;27;45450;-62
2022/07/27 02:37:48;;;;;;;;;4.00;3.33;;;;;18.55;100.00;101440.63;5049482;28;45430;-63
2022/07/27 02:40:17;;;;;;;;;3.33;3.33;;;;;18.56;100.00;101445.09;5048906;28;45478;-64
2022/07/27 02:42:43;;;;;;;;;2.67;2.67;;;;;18.53;100.00;101454.75;5048437;28;45976;-63
2022/07/27 02:45:09;;;;;;;;;2.33;2.33;;;;;18.52;100.00;101445.59;5048496;28;45686;-64
2022/07/27 02:47:34;;;;;;;;;4.33;4.00;;;;;18.49;100.00;101448.03;5048145;28;45611;-63
2022/07/27 02:50:01;;;;;;;;;3.67;3.67;;;;;18.48;100.00;101447.16;5041759;28;45690;-63
2022/07/27 02:52:27;;;;;;;;;1.25;1.25;;;;;18.47;100.00;101439.94;5047575;28;45463;-62
2022/07/27 02:54:52;;;;;;;;;3.33;2.00;;;;;18.45;100.00;101452.38;5035088;28;45742;-64
2022/07/27 02:57:18;;;;;;;;;4.00;2.33;;;;;18.44;100.00;101448.78;5044082;28;45846;-63
2022/07/27 02:59:43;;;;;;;;;1.50;1.50;;;;;18.41;100.00;101440.91;5034422;28;45949;-62
2022/07/27 03:02:09;;;;;;;;;1.00;1.00;;;;;18.39;100.00;101434.75;5034254;28;46918;-61
2022/07/27 03:04:34;;;;;;;;;2.67;1.33;;;;;18.36;100.00;101432.47;5036796;28;45361;-64
2022/07/27 03:06:59;;;;;;;;;3.00;2.00;;;;;18.34;100.00;101434.66;5034303;28;45967;-65
2022/07/27 03:09:25;;;;;;;;;4.33;2.33;;;;;18.27;100.00;101437.56;5038608;28;45387;-64
2022/07/27 03:11:50;;;;;;;;;2.00;1.67;;;;;18.25;100.00;101436.09;5026717;28;45370;-63
2022/07/27 03:14:16;;;;;;;;;2.00;2.00;;;;;18.21;100.00;101432.13;5030332;28;45405;-63
2022/07/27 03:16:41;;;;;;;;;2.00;2.00;;;;;18.17;100.00;101435.41;5026355;28;45505;-65
2022/07/27 03:19:07;;;;;;;;;4.67;4.00;;;;;18.13;100.00;101428.63;5034215;28;45497;-64
2022/07/27 03:21:32;;;;;;;;;3.67;3.00;;;;;18.08;100.00;101430.44;5033921;28;45761;-63
2022/07/27 03:23:58;;;;;;;;;2.67;2.00;;;;;18.04;100.00;101423.69;5035832;28;45421;-62
2022/07/27 03:26:23;;;;;;;;;2.67;2.00;;;;;18.03;100.00;101433.94;5033176;28;45623;-62
2022/07/27 03:28:48;;;;;;;;;0.33;0.33;;;;;17.97;100.00;101427.44;5032863;28;45924;-62
2022/07/27 03:31:14;;;;;;;;;1.67;1.67;;;;;17.92;100.00;101426.47;5034778;28;46107;-63
2022/07/27 03:33:39;;;;;;;;;2.33;2.00;;;;;17.85;100.00;101425.72;5027761;28;45686;-64
2022/07/27 03:36:06;;;;;;;;;4.00;2.67;;;;;17.80;100.00;101424.50;5023280;28;45762;-62
2022/07/27 03:38:31;;;;;;;;;1.67;1.67;;;;;17.79;100.00;101433.91;5026859;28;45839;-67
2022/07/27 03:40:57;;;;;;;;;4.33;3.00;;;;;17.75;100.00;101429.91;5033124;28;45854;-64
2022/07/27 03:43:22;;;;;;;;;3.67;1.67;;;;;17.70;100.00;101435.34;5027721;28;45607;-63
2022/07/27 03:45:48;;;;;;;;;2.00;2.00;;;;;17.68;100.00;101436.69;5024989;28;45573;-63
2022/07/27 03:48:13;;;;;;;;;3.33;1.67;;;;;17.66;100.00;101439.69;5032095;28;45757;-66
2022/07/27 03:50:39;;;;;;;;;2.67;1.33;;;;;17.59;100.00;101431.50;5030759;28;47341;-64
2022/07/27 03:53:04;;;;;;;;;3.33;2.67;;;;;17.59;100.00;101433.41;5026504;28;45863;-64
2022/07/27 03:55:30;;;;;;;;;2.00;2.00;;;;;17.54;100.00;101420.25;5028005;28;45309;-63
2022/07/27 03:57:56;;;;;;;;;3.00;2.00;;;;;17.53;100.00;101438.00;5025249;28;45789;-63
2022/07/27 04:00:21;;;;;;;;;2.67;2.67;;;;;17.52;100.00;101435.47;5027341;28;47426;-63
2022/07/27 04:02:47;;;;;;;;;6.67;2.00;;;;;17.50;100.00;101434.84;5025745;28;45522;-64
2022/07/27 04:05:12;;;;;;;;;2.00;2.00;;;;;17.46;100.00;101429.78;5023405;28;45540;-65
2022/07/27 04:07:38;;;;;;;;;3.33;3.33;;;;;17.44;100.00;101428.31;5024684;28;45759;-65
2022/07/27 04:10:05;;;;;;;;;2.00;2.00;;;;;17.41;100.00;101423.25;5027174;28;45606;-62
2022/07/27 04:12:31;;;;;;;;;2.33;2.33;;;;;17.38;100.00;101429.28;5026225;28;45665;-62
2022/07/27 04:14:57;;;;;;;;;4.00;2.00;;;;;17.32;100.00;101428.31;5024485;28;45374;-65
2022/07/27 04:17:22;;;;;;;;;4.33;3.00;;;;;17.31;100.00;101429.38;5018825;28;45513;-66
2022/07/27 04:19:47;;;;;;;;;2.33;2.33;;;;;17.28;100.00;101430.69;5021043;28;48134;-65
2022/07/27 04:22:13;;;;;;;;;3.00;3.00;;;;;17.26;100.00;101430.09;5016628;28;45514;-63
2022/07/27 04:24:38;;;;;;;;;4.00;2.00;;;;;17.27;100.00;101436.47;5027215;28;45301;-65
2022/07/27 04:27:04;;;;;;;;;2.00;2.00;;;;;17.26;100.00;101429.25;5027138;28;45868;-65
2022/07/27 04:29:29;;;;;;;;;5.00;4.00;;;;;17.28;100.00;101429.88;5026937;28;45654;-64
2022/07/27 04:31:54;;;;;;;;;2.33;2.33;;;;;17.34;100.00;101428.91;5025608;28;45444;-66
2022/07/27 04:34:20;;;;;;;;;3.00;2.00;;;;;17.45;100.00;101427.25;5021844;28;45904;-64
2022/07/27 04:36:45;;;;;;;;;1.33;1.33;;;;;17.59;100.00;101427.84;5019986;28;45997;-64
2022/07/27 04:39:11;;;;;;;;;2.33;2.33;;;;;17.67;100.00;101427.53;5029504;28;46374;-63
2022/07/27 04:41:36;;;;;;;;;3.33;2.00;;;;;17.83;100.00;101424.03;5029427;28;45399;-64
2022/07/27 04:44:02;;;;;;;;;6.33;3.00;;;;;18.04;100.00;101419.00;5023722;28;45504;-64
2022/07/27 04:46:31;;;;;;;;;2.00;1.00;;;;;18.27;100.00;101418.13;5024609;28;45787;-63
2022/07/27 04:48:56;;;;;;;;;3.00;1.00;;;;;18.55;100.00;101426.75;5028760;28;45546;-65
2022/07/27 04:51:22;;;;;;;;;1.67;1.67;;;;;18.74;100.00;101410.75;5031603;28;45445;-65
2022/07/27 04:53:47;;;;;;;;;2.00;2.00;;;;;18.99;100.00;101413.22;5032336;28;45675;-63
2022/07/27 04:56:13;;;;;;;;;3.33;2.00;;;;;19.21;100.00;101414.19;5032610;28;45732;-65
2022/07/27 04:58:38;;;;;;;;;2.00;2.00;;;;;19.52;100.00;101417.50;5036534;28;45763;-64
2022/07/27 05:01:04;;;;;;;;;3.67;2.33;;;;;19.81;100.00;101400.72;5033678;28;45359;-66
2022/07/27 05:03:29;;;;;;;;;3.67;3.33;;;;;20.14;100.00;101409.28;5020497;28;45613;-66
2022/07/27 05:05:55;;;;;;;;;3.00;2.00;;;;;20.44;100.00;101406.06;5015378;28;47130;-63
2022/07/27 05:08:21;;;;;;;;;4.33;3.00;;;;;20.73;100.00;101409.50;5023786;28;46327;-64
2022/07/27 05:10:46;;;;;;;;;2.00;2.00;;;;;21.00;100.00;101414.25;5032407;28;45365;-65
2022/07/27 05:13:12;;;;;;;;;7.67;3.33;;;;;21.23;100.00;101413.13;5026231;28;45671;-64
2022/07/27 05:15:38;;;;;;;;;2.00;2.00;;;;;21.56;100.00;101405.63;5033355;28;45453;-68
2022/07/27 05:18:04;;;;;;;;;4.00;3.00;;;;;22.03;100.00;101406.78;5024050;28;48131;-67
2022/07/27 05:20:30;;;;;;;;;3.00;2.00;;;;;22.59;100.00;101406.25;5027487;28;45422;-69
2022/07/27 05:22:55;;;;;;;;;1.75;1.75;;;;;23.18;100.00;101404.19;5031910;28;44819;-64
2022/07/27 05:25:24;;;;;;;;;3.25;2.00;;;;;23.61;100.00;101410.38;5029349;28;45521;-63
2022/07/27 05:27:50;;;;;;;;;3.75;2.25;;;;;24.02;100.00;101401.94;5033392;28;48067;-65
2022/07/27 05:30:16;;;;;;;;;3.00;2.00;;;;;24.48;100.00;101415.78;5034446;28;45688;-64
2022/07/27 05:32:41;;;;;;;;;2.50;2.00;;;;;25.01;100.00;101411.63;5031567;28;45660;-63
2022/07/27 05:35:07;;;;;;;;;1.50;1.00;;;;;25.46;100.00;101406.84;5022188;28;45877;-62
2022/07/27 05:37:32;;;;;;;;;4.25;3.00;;;;;25.80;98.29;101410.75;5034232;28;45398;-65
2022/07/27 05:39:58;;;;;;;;;4.25;2.00;;;;;26.13;92.91;101414.66;5035849;28;45510;-65
2022/07/27 05:42:23;;;;;;;;;2.25;2.25;;;;;26.49;90.04;101419.84;5033770;28;45920;-63
2022/07/27 05:44:53;;;;;;;;;2.00;2.00;;;;;26.91;87.11;101423.81;5035054;28;45526;-64
2022/07/27 05:47:18;;;;;;;;;4.25;1.00;;;;;27.33;79.75;101420.44;5033024;28;45523;-63
2022/07/27 05:49:43;;;;;;;;;3.00;3.00;;;;;27.58;75.95;101422.81;5027691;28;45463;-65
2022/07/27 05:52:09;;;;;;;;;3.50;2.50;;;;;27.76;72.65;101423.09;5016854;28;45712;-62
2022/07/27 05:54:34;;;;;;;;;2.00;2.00;;;;;27.85;69.95;101423.22;5029292;28;45469;-64
2022/07/27 05:57:00;;;;;;;;;3.00;2.00;;;;;27.94;70.16;101430.63;5029713;28;45418;-66
2022/07/27 05:59:25;;;;;;;;;3.50;3.00;;;;;28.11;67.78;101423.59;5024778;28;45609;-65
2022/07/27 06:01:50;;;;;;;;;2.50;2.50;;;;;28.29;66.14;101435.94;5024553;28;45964;-64
2022/07/27 06:04:16;;;;;;;;;3.00;3.00;;;;;28.50;64.21;101419.41;5007168;28;46230;-62
2022/07/27 06:09:25;;;;;;;;;4.25;2.00;;;;;29.11;59.24;101416.41;5022526;28;45939;-63
2022/07/27 06:11:50;;;;;;;;;2.75;2.00;;;;;29.31;59.11;101421.63;5027947;28;46097;-62
2022/07/27 06:14:16;;;;;;;;;2.50;2.00;;;;;29.79;59.44;101419.25;5023930;28;45375;-66
2022/07/27 06:16:41;;;;;;;;;3.75;3.00;;;;;30.35;53.78;101422.56;5023818;28;46914;-65
2022/07/27 06:19:07;;;;;;;;;2.50;1.25;;;;;30.52;51.61;101435.97;5023679;28;45415;-63
2022/07/27 06:21:32;;;;;;;;;3.00;2.00;;;;;30.56;51.04;101425.66;5025882;28;45870;-63
2022/07/27 06:23:58;;;;;;;;;3.75;2.25;;;;;30.63;50.69;101409.03;5021710;28;45407;-65
2022/07/27 06:26:23;;;;;;;;;2.00;2.00;;;;;30.91;52.06;101426.53;5022836;28;45821;-63
2022/07/27 06:28:48;;;;;;;;;3.00;1.00;;;;;31.09;48.65;101435.09;5025611;28;45511;-63
2022/07/27 06:31:14;;;;;;;;;1.50;1.00;;;;;31.10;47.61;101419.78;5031257;28;45640;-64
2022/07/27 06:33:40;;;;;;;;;2.75;2.75;;;;;31.24;46.86;101413.94;5038096;28;46042;-65
2022/07/27 06:36:07;;;;;;;;;1.75;1.00;;;;;31.55;46.66;101425.13;5023697;28;47853;-65
2022/07/27 06:38:33;;;;;;;;;2.25;2.00;;;;;31.81;44.95;101435.56;5024608;28;45732;-62
2022/07/27 06:40:59;;;;;;;;;2.75;1.75;;;;;31.96;44.52;101432.22;5027706;28;45735;-66
2022/07/27 06:43:29;;;;;;;;;4.25;2.00;;;;;32.27;43.20;101433.13;5025141;28;47239;-66
2022/07/27 06:45:54;;;;;;;;;2.00;2.00;;;;;32.53;42.68;101438.66;5029517;28;45579;-67
2022/07/27 06:48:21;;;;;;;;;2.50;1.25;;;;;32.93;42.03;101434.63;5028680;28;45805;-64
2022/07/27 06:50:48;;;;;;;;;2.25;1.75;;;;;33.41;40.47;101433.25;5024206;28;45801;-65
2022/07/27 06:53:13;;;;;;;;;1.50;1.50;;;;;33.78;39.39;101434.22;5026268;28;45858;-63
2022/07/27 06:55:40;;;;;;;;;3.00;2.00;;;;;34.17;38.41;101425.41;5028649;28;45617;-64
2022/07/27 06:58:06;;;;;;;;;1.80;1.80;;;;;34.58;38.11;101422.72;5029336;28;45874;-63
2022/07/27 07:00:31;;;;;;;;;1.25;1.25;;;;;35.05;36.93;101425.03;5023584;28;45864;-66
2022/07/27 07:03:01;;;;;;;;;2.25;1.00;;;;;35.44;35.99;101436.00;5026219;28;45895;-66
2022/07/27 07:05:28;;;;;;;;;3.75;1.00;;;;;35.77;35.04;101444.25;5032172;28;47327;-66
2022/07/27 07:07:54;;;;;;;;;2.00;1.25;;;;;36.23;34.26;101441.03;5033226;28;45606;-65
2022/07/27 07:10:21;;;;;;;;;3.25;3.00;;;;;36.84;33.21;101444.59;5022966;28;45460;-66
2022/07/27 07:12:46;;;;;;;;;3.25;1.00;;;;;37.39;32.08;101436.00;5028032;28;45688;-65
2022/07/27 07:15:12;;;;;;;;;3.00;1.00;;;;;37.96;31.77;101437.13;5035665;28;46185;-68
2022/07/27 07:17:38;;;;;;;;;2.00;2.00;;;;;38.53;30.55;101441.41;5030009;28;45446;-65
2022/07/27 07:20:06;;;;;;;;;1.75;1.25;;;;;39.19;29.42;101442.00;5032936;28;45822;-66
2022/07/27 07:22:35;;;;;;;;;2.00;1.00;;;;;39.70;28.38;101437.72;5027962;28;45752;-67
2022/07/27 07:25:01;;;;;;;;;3.50;1.25;;;;;40.10;28.04;101436.09;5028125;28;46265;-66
2022/07/27 07:27:27;;;;;;;;;5.00;2.00;;;;;40.12;27.43;101445.13;5030617;28;45790;-67
2022/07/27 07:29:53;;;;;;;;;5.00;3.50;;;;;40.16;27.06;101443.13;5022388;28;45962;-69
2022/07/27 07:32:21;;;;;;;;;3.00;3.00;;;;;40.36;26.87;101437.13;5028001;28;45681;-65
2022/07/27 07:34:48;;;;;;;;;3.00;3.00;;;;;40.65;26.10;101443.09;5019359;28;45441;-67
2022/07/27 07:37:15;;;;;;;;;3.25;1.50;;;;;40.85;26.43;101450.22;5032375;28;45539;-67
2022/07/27 07:39:40;;;;;;;;;2.00;2.00;;;;;41.06;25.69;101445.84;5030682;28;45338;-67
2022/07/27 07:42:06;;;;;;;;;2.00;2.00;;;;;41.13;25.54;101445.88;5026229;28;45726;-64
2022/07/27 07:44:31;;;;;;;;;2.00;2.00;;;;;41.23;25.87;101444.28;5030762;28;45892;-68
2022/07/27 07:46:57;;;;;;;;;3.75;3.00;;;;;41.51;25.58;101446.47;5027773;28;45440;-66
2022/07/27 07:49:22;;;;;;;;;4.00;3.00;;;;;41.89;24.36;101444.13;5021053;28;45836;-67
2022/07/27 07:51:47;;;;;;;;;3.00;3.00;;;;;42.15;24.23;101444.97;5033713;28;45781;-68
2022/07/27 07:54:13;;;;;;;;;2.00;2.00;;;;;42.37;23.80;101442.09;5030018;28;45980;-67
2022/07/27 07:56:38;;;;;;;;;2.00;2.00;;;;;42.41;23.53;101440.03;5026823;28;45951;-66
2022/07/27 07:59:03;;;;;;;;;6.00;3.75;;;;;42.01;23.79;101442.06;5033616;28;45553;-66
2022/07/27 08:01:29;;;;;;;;;5.75;3.25;;;;;41.98;23.60;101433.03;5025671;28;45860;-66
2022/07/27 08:03:55;;;;;;;;;4.25;3.00;;;;;42.10;23.26;101442.47;5030086;28;46085;-66
2022/07/27 08:06:20;;;;;;;;;4.00;4.00;;;;;41.90;23.34;101442.88;5033299;28;45441;-67
2022/07/27 08:08:45;;;;;;;;;5.75;4.00;;;;;41.77;23.57;101442.47;5033184;28;45748;-66
2022/07/27 08:11:11;;;;;;;;;3.00;3.00;;;;;41.87;23.82;101442.88;5034109;28;45621;-65
2022/07/27 08:13:36;;;;;;;;;4.25;3.25;;;;;41.71;23.90;101434.59;5039278;28;46681;-66
2022/07/27 08:16:02;;;;;;;;;5.00;3.00;;;;;41.84;23.32;101435.88;5026446;28;45461;-67
2022/07/27 08:18:27;;;;;;;;;3.25;3.25;;;;;41.97;23.75;101422.72;5033849;28;45630;-66
2022/07/27 08:20:52;;;;;;;;;2.25;2.25;;;;;42.18;22.81;101424.00;5034356;28;45685;-67
2022/07/27 08:23:18;;;;;;;;;4.75;3.25;;;;;42.20;22.70;101429.34;5037053;28;46091;-66
2022/07/27 08:25:44;;;;;;;;;4.50;3.50;;;;;41.95;23.05;101433.84;5034789;28;45647;-66
2022/07/27 08:28:09;;;;;;;;;5.00;2.75;;;;;41.80;23.49;101426.41;5035031;28;45816;-67
2022/07/27 08:30:35;;;;;;;;;5.25;4.75;;;;;41.98;23.61;101421.50;5030698;28;45387;-66
2022/07/27 08:33:02;;;;;;;;;4.25;4.25;;;;;42.08;23.34;101419.84;5030690;28;45701;-66
2022/07/27 08:35:29;;;;;;;;;4.00;3.00;;;;;42.28;23.12;101414.53;5031959;28;45373;-67
2022/07/27 08:37:55;;;;;;;;;4.25;2.75;;;;;42.53;22.32;101428.06;5031173;28;45931;-66
2022/07/27 08:40:21;;;;;;;;;3.25;3.25;;;;;42.46;22.83;101420.28;5029129;28;45894;-66
2022/07/27 08:42:47;;;;;;;;;7.00;5.25;;;;;42.38;22.53;101435.09;5031152;28;45880;-66
2022/07/27 08:45:15;;;;;;;;;3.25;3.25;;;;;42.07;22.92;101417.38;5026633;28;45469;-64
2022/07/27 08:47:41;;;;;;;;;3.25;3.25;;;;;42.02;22.99;101414.91;5031010;28;45413;-65
2022/07/27 08:50:22;;;;;;;;;3.75;3.75;;;;;41.99;22.92;101411.63;5027826;28;45547;-65
2022/07/27 08:52:54;;;;;;;;;2.75;2.00;;;;;42.09;22.36;101424.38;5028484;28;45761;-67
2022/07/27 08:55:21;;;;;;;;;4.25;3.00;;;;;42.32;22.41;101403.81;5033439;28;45962;-66
2022/07/27 08:57:47;;;;;;;;;4.00;3.00;;;;;42.55;21.78;101413.25;5032242;28;45967;-66
2022/07/27 09:00:13;;;;;;;;;3.00;3.00;;;;;42.58;21.70;101409.53;5027748;28;46425;-66
2022/07/27 09:02:39;;;;;;;;;3.00;3.00;;;;;42.59;21.60;101412.03;5032044;28;46558;-66
2022/07/27 09:05:06;;;;;;;;;3.25;3.00;;;;;42.59;21.49;101414.09;5030749;28;45611;-66
2022/07/27 09:07:32;;;;;;;;;3.00;3.00;;;;;42.63;21.37;101409.97;5028332;28;45847;-66
2022/07/27 09:09:58;;;;;;;;;2.00;2.00;;;;;42.60;21.52;101419.44;5034303;28;45712;-67
2022/07/27 09:12:28;;;;;;;;;3.00;3.00;;;;;42.60;21.80;101415.75;5034401;28;46185;-66
2022/07/27 09:15:12;;;;;;;;;3.25;3.25;;;;;42.37;21.77;101419.03;5028611;28;45436;-66
2022/07/27 09:17:40;;;;;;;;;3.25;3.00;;;;;42.29;21.65;101424.78;5028481;28;45524;-66
2022/07/27 09:20:06;;;;;;;;;5.25;3.25;;;;;42.51;21.39;101416.94;5031082;28;45353;-66
2022/07/27 09:22:42;;;;;;;;;3.00;3.00;;;;;42.85;21.03;101409.91;5035939;28;46193;-66
2022/07/27 09:25:09;;;;;;;;;5.50;3.75;;;;;42.88;21.02;101403.31;5031807;28;45370;-65
2022/07/27 09:27:35;;;;;;;;;4.00;4.00;;;;;43.08;20.59;101411.50;5034706;28;45879;-67
2022/07/27 09:30:03;;;;;;;;;4.00;2.50;;;;;43.60;20.26;101419.50;5031738;28;45430;-66
2022/07/27 09:32:29;;;;;;;;;1.75;1.75;;;;;43.74;20.44;101411.53;5015022;28;47333;-69
2022/07/27 09:34:54;;;;;;;;;5.00;3.75;;;;;44.01;19.80;101410.16;5035813;28;45656;-67
2022/07/27 09:37:27;;;;;;;;;3.25;3.25;;;;;44.18;20.04;101403.41;5035804;28;46601;-67
2022/07/27 09:40:16;;;;;;;;;2.75;1.75;;;;;44.23;19.41;101411.63;5036372;28;47474;-70
2022/07/27 09:42:43;;;;;;;;;4.75;2.00;;;;;44.38;19.36;101403.63;5034170;28;45530;-70
2022/07/27 09:45:30;;;;;;;;;2.00;2.00;;;;;44.58;19.18;101409.63;5034009;28;45615;-70
2022/07/27 09:48:16;;;;;;;;;2.50;2.25;;;;;44.89;19.09;101401.03;5030117;28;45319;-68
2022/07/27 09:50:45;;;;;;;;;4.50;2.00;;;;;44.53;18.86;101404.31;5030992;28;45548;-72
2022/07/27 09:53:22;;;;;;;;;7.00;2.00;;;;;44.23;19.39;101399.25;5030600;28;46232;-67
2022/07/27 09:56:12;;;;;;;;;2.00;2.00;;;;;44.24;18.69;101404.59;5030930;28;45503;-69
2022/07/27 09:58:50;;;;;;;;;2.25;2.25;;;;;44.16;18.76;101399.28;5024270;28;45521;-68
2022/07/27 10:01:20;;;;;;;;;1.50;1.50;;;;;44.07;17.66;101402.66;5033499;28;45404;-69
2022/07/27 10:03:48;;;;;;;;;1.25;1.25;;;;;44.18;17.23;101397.63;5031901;28;46218;-69
2022/07/27 10:06:15;;;;;;;;;1.60;1.60;;;;;44.52;17.63;101390.28;5035110;28;45693;-68
2022/07/27 10:08:43;;;;;;;;;2.75;2.75;;;;;44.72;17.84;101390.47;5039404;28;45610;-68
2022/07/27 10:11:10;;;;;;;;;2.50;1.50;;;;;44.75;18.09;101389.63;5037600;28;45813;-67
2022/07/27 10:13:36;;;;;;;;;2.00;2.00;;;;;45.22;17.70;101400.66;5037615;28;45801;-71
2022/07/27 10:16:03;;;;;;;;;4.75;3.00;;;;;45.39;17.77;101382.19;5036780;28;45548;-70
2022/07/27 10:18:54;;;;;;;;;4.00;3.00;;;;;45.11;17.64;101386.28;5032811;28;45352;-67
2022/07/27 10:21:21;;;;;;;;;2.50;2.00;;;;;45.21;17.12;101382.44;5035806;28;45539;-69
2022/07/27 10:23:55;;;;;;;;;1.00;1.00;;;;;45.17;17.13;101383.75;5037972;28;46103;-68
2022/07/27 10:26:32;;;;;;;;;1.50;1.00;;;;;45.10;16.87;101382.59;5038299;28;45516;-69
2022/07/27 10:29:03;;;;;;;;;1.00;1.00;;;;;44.58;16.18;101379.88;5032007;28;45852;-71
2022/07/27 10:31:32;;;;;;;;;3.00;3.00;;;;;44.59;16.74;101384.41;5037117;28;45701;-75
2022/07/27 10:33:59;;;;;;;;;1.00;1.00;;;;;45.04;16.58;101381.44;5034864;28;46320;-71
2022/07/27 10:36:31;;;;;;;;;2.00;1.75;;;;;45.17;16.76;101386.63;5039187;28;45708;-71
2022/07/27 10:39:03;;;;;;;;;2.50;2.50;;;;;45.53;16.61;101374.56;5034215;28;45792;-69
2022/07/27 10:41:40;;;;;;;;;2.00;1.00;;;;;45.86;16.27;101377.78;5031154;28;45518;-71
2022/07/27 10:44:20;;;;;;;;;2.00;1.00;;;;;46.04;16.64;101378.31;5045735;28;46391;-71
2022/07/27 10:46:54;;;;;;;;;2.50;2.50;;;;;45.89;16.17;101374.00;5030879;28;45454;-68
2022/07/27 10:49:28;;;;;;;;;3.25;2.75;;;;;45.76;16.64;101371.69;5037347;28;45414;-69
2022/07/27 10:51:56;;;;;;;;;2.50;1.50;;;;;45.63;16.15;101364.88;5025765;28;45465;-70
2022/07/27 10:54:26;;;;;;;;;1.00;1.00;;;;;45.45;16.73;101365.16;5029477;28;45644;-70
2022/07/27 10:56:55;;;;;;;;;4.25;2.25;;;;;44.88;16.03;101364.66;5033621;28;45745;-69
2022/07/27 10:59:39;;;;;;;;;0.50;0.50;;;;;44.01;16.59;101358.13;5029923;28;47435;-70
2022/07/27 11:02:05;;;;;;;;;0.25;0.00;;;;;43.72;17.29;101355.44;5033337;28;45781;-70
2022/07/27 11:04:31;;;;;;;;;0.75;0.75;;;;;43.42;17.83;101358.94;5043172;28;47259;-67
2022/07/27 11:07:01;;;;;;;;;2.00;2.00;;;;;43.42;17.86;101364.72;5026805;28;45631;-66
2022/07/27 11:09:38;;;;;;;;;2.50;2.50;;;;;43.16;17.76;101350.44;5027710;28;45986;-69
2022/07/27 11:12:04;;;;;;;;;3.00;2.00;;;;;43.41;18.03;101343.69;5031656;28;45533;-69
2022/07/27 11:14:41;;;;;;;;;0.75;0.75;;;;;42.90;17.58;101340.22;5035446;28;45489;-68
2022/07/27 11:17:07;;;;;;;;;1.00;1.00;;;;;42.09;18.62;101329.25;5034066;28;45401;-68
2022/07/27 11:19:32;;;;;;;;;1.50;1.00;;;;;40.72;19.69;101348.25;5033557;28;45334;-70
2022/07/27 11:21:59;;;;;;;;;2.00;2.00;;;;;39.82;19.79;101338.97;5028356;28;45727;-68
2022/07/27 11:24:26;;;;;;;;;1.00;1.00;;;;;39.35;20.97;101327.00;5027954;28;45567;-69
2022/07/27 11:26:52;;;;;;;;;2.00;1.00;;;;;39.28;20.75;101327.72;5022050;28;45806;-66
2022/07/27 11:29:20;;;;;;;;;2.00;1.00;;;;;39.15;20.73;101330.06;5026561;28;45428;-67